createdAt,value
2022-10-07T00:02:29.827Z,7.22
2022-10-07T00:05:03.353Z,6.35
2022-10-07T00:07:36.633Z,6.70
2022-10-07T00:10:09.849Z,6.22
2022-10-07T00:12:43.244Z,5.82
2022-10-07T00:15:16.335Z,5.80
2022-10-07T00:17:49.413Z,6.20
2022-10-07T00:20:22.249Z,6.95
2022-10-07T00:22:55.313Z,5.68
2022-10-07T00:25:28.134Z,6.25
2022-10-07T00:28:01.177Z,6.60
2022-10-07T00:30:34.028Z,5.82
2022-10-07T00:33:07.017Z,6.47
2022-10-07T00:35:39.666Z,6.25
2022-10-07T00:38:12.484Z,6.20
2022-10-07T00:40:45.126Z,6.30
2022-10-07T00:43:23.514Z,5.25
2022-10-07T00:46:01.268Z,5.75
2022-10-07T00:48:36.430Z,6.15
2022-10-07T00:51:10.260Z,6.40
2022-10-07T00:53:46.711Z,5.30
2022-10-07T00:56:19.727Z,6.75
2022-10-07T00:58:53.103Z,6.65
2022-10-07T01:01:26.862Z,6.70
2022-10-07T01:03:59.779Z,5.72
2022-10-07T01:06:32.531Z,6.30
2022-10-07T01:09:07.364Z,6.40
2022-10-07T01:12:10.649Z,7.45
2022-10-07T01:14:49.346Z,6.95
2022-10-07T01:17:24.813Z,7.35
2022-10-07T01:20:03.675Z,7.13
2022-10-07T01:22:47.937Z,6.95
2022-10-07T01:25:47.283Z,6.95
2022-10-07T01:28:34.142Z,7.85
2022-10-07T01:31:10.509Z,7.53
2022-10-07T01:33:45.892Z,7.60
2022-10-07T01:36:22.768Z,8.65
2022-10-07T01:39:02.815Z,7.65
2022-10-07T01:41:39.007Z,7.90
2022-10-07T01:44:13.935Z,8.25
2022-10-07T01:46:47.919Z,8.75
2022-10-07T01:49:20.579Z,9.02
2022-10-07T01:52:19.803Z,8.40
2022-10-07T01:55:22.200Z,8.73
2022-10-07T01:58:05.215Z,8.85
2022-10-07T02:00:52.264Z,8.45
2022-10-07T02:03:32.153Z,8.70
2022-10-07T02:06:16.889Z,8.38
2022-10-07T02:08:53.407Z,8.23
2022-10-07T02:11:33.737Z,9.18
2022-10-07T02:14:09.391Z,8.93
2022-10-07T02:16:48.434Z,9.32
2022-10-07T02:19:44.073Z,8.43
2022-10-07T02:22:18.728Z,8.50
2022-10-07T02:24:55.515Z,9.25
2022-10-07T02:27:37.410Z,8.25
2022-10-07T02:30:13.847Z,8.25
2022-10-07T02:32:53.349Z,9.23
2022-10-07T02:35:37.988Z,8.93
2022-10-07T02:38:14.440Z,7.72
2022-10-07T02:41:31.769Z,8.95
2022-10-07T02:44:09.582Z,7.88
2022-10-07T02:47:12.080Z,7.97
2022-10-07T02:49:49.568Z,9.77
2022-10-07T02:52:25.399Z,8.20
2022-10-07T02:55:00.575Z,8.45
2022-10-07T02:57:38.772Z,10.18
2022-10-07T03:00:12.626Z,8.63
2022-10-07T03:02:57.441Z,8.40
2022-10-07T03:05:30.331Z,9.23
2022-10-07T03:08:08.731Z,10.00
2022-10-07T03:10:41.513Z,9.32
2022-10-07T03:13:15.740Z,9.38
2022-10-07T03:15:48.826Z,8.95
2022-10-07T03:18:28.419Z,9.13
2022-10-07T03:21:01.322Z,9.37
2022-10-07T03:23:34.348Z,10.15
2022-10-07T03:26:07.078Z,9.98
2022-10-07T03:28:40.093Z,9.25
2022-10-07T03:31:15.448Z,9.77
2022-10-07T03:33:48.728Z,9.00
2022-10-07T03:36:23.272Z,8.18
2022-10-07T03:38:56.367Z,9.02
2022-10-07T03:41:29.086Z,8.93
2022-10-07T03:44:02.086Z,8.98
2022-10-07T03:46:34.933Z,9.32
2022-10-07T03:49:07.950Z,9.48
2022-10-07T03:51:40.622Z,8.75
2022-10-07T03:54:13.534Z,9.10
2022-10-07T03:56:46.195Z,8.27
2022-10-07T03:59:19.087Z,9.35
2022-10-07T04:01:51.833Z,10.63
2022-10-07T04:04:24.765Z,9.38
2022-10-07T04:06:57.366Z,8.65
2022-10-07T04:09:30.448Z,9.18
2022-10-07T04:12:03.819Z,8.60
2022-10-07T04:14:37.024Z,9.63
2022-10-07T04:17:09.718Z,9.52
2022-10-07T04:19:42.559Z,9.07
2022-10-07T04:22:15.183Z,7.68
2022-10-07T04:25:08.014Z,7.78
2022-10-07T04:27:51.551Z,9.35
2022-10-07T04:30:27.437Z,7.80
2022-10-07T04:33:01.550Z,8.00
2022-10-07T04:35:38.829Z,8.27
2022-10-07T04:38:13.505Z,9.20
2022-10-07T04:40:50.141Z,7.65
2022-10-07T04:43:23.746Z,9.13
2022-10-07T04:46:05.505Z,8.90
2022-10-07T04:48:38.236Z,8.45
2022-10-07T04:51:11.576Z,8.63
2022-10-07T04:53:44.932Z,9.48
2022-10-07T04:56:17.755Z,8.45
2022-10-07T04:58:50.774Z,8.35
2022-10-07T05:01:23.853Z,8.50
2022-10-07T05:03:59.954Z,8.50
2022-10-07T05:06:33.702Z,8.68
2022-10-07T05:09:06.575Z,9.10
2022-10-07T05:11:39.735Z,9.40
2022-10-07T05:14:12.577Z,8.98
2022-10-07T05:16:48.514Z,10.93
2022-10-07T05:19:21.309Z,9.45
2022-10-07T05:21:57.020Z,9.63
2022-10-07T05:24:30.424Z,9.90
2022-10-07T05:27:03.317Z,9.38
2022-10-07T05:29:35.933Z,9.57
2022-10-07T05:32:09.027Z,10.35
2022-10-07T05:34:42.531Z,10.48
2022-10-07T05:37:15.447Z,10.82
2022-10-07T05:39:48.252Z,10.13
2022-10-07T05:42:21.671Z,10.85
2022-10-07T05:44:54.614Z,11.52
2022-10-07T05:47:27.652Z,11.13
2022-10-07T05:50:00.807Z,10.75
2022-10-07T05:52:34.154Z,11.57
2022-10-07T05:55:07.919Z,12.48
2022-10-07T05:57:41.543Z,11.95
2022-10-07T06:00:14.594Z,11.75
2022-10-07T06:02:48.031Z,11.57
2022-10-07T06:05:23.466Z,11.50
2022-10-07T06:07:57.422Z,12.35
2022-10-07T06:10:52.020Z,12.82
2022-10-07T06:13:25.270Z,11.55
2022-10-07T06:16:06.372Z,12.07
2022-10-07T06:18:39.851Z,11.40
2022-10-07T06:21:15.187Z,13.35
2022-10-07T06:23:52.563Z,13.32
2022-10-07T06:26:26.419Z,13.10
2022-10-07T06:28:59.779Z,13.45
2022-10-07T06:31:32.762Z,13.77
2022-10-07T06:34:06.475Z,13.70
2022-10-07T06:36:39.811Z,15.27
2022-10-07T06:39:12.894Z,13.90
2022-10-07T06:41:45.857Z,14.73
2022-10-07T06:44:19.371Z,14.02
2022-10-07T06:46:52.192Z,14.90
2022-10-07T06:49:25.294Z,13.25
2022-10-07T06:51:58.176Z,13.82
2022-10-07T06:54:31.392Z,14.65
2022-10-07T06:57:20.401Z,14.80
2022-10-07T06:59:57.163Z,14.77
2022-10-07T07:02:30.695Z,14.63
2022-10-07T07:05:08.227Z,15.32
2022-10-07T07:07:40.909Z,14.73
2022-10-07T07:10:15.024Z,16.23
2022-10-07T07:12:48.251Z,15.55
2022-10-07T07:15:22.443Z,15.13
2022-10-07T07:17:55.092Z,14.77
2022-10-07T07:20:35.179Z,15.38
2022-10-07T07:23:12.115Z,15.05
2022-10-07T07:25:46.306Z,14.93
2022-10-07T07:28:19.348Z,16.13
2022-10-07T07:30:52.493Z,15.43
2022-10-07T07:33:25.380Z,15.52
2022-10-07T07:35:59.004Z,16.10
2022-10-07T07:38:31.736Z,19.40
2022-10-07T07:41:06.122Z,15.27
2022-10-07T07:43:38.889Z,16.48
2022-10-07T07:46:12.727Z,15.20
2022-10-07T07:48:46.604Z,15.90
2022-10-07T07:51:20.137Z,17.08
2022-10-07T07:53:52.785Z,16.13
2022-10-07T07:56:29.367Z,17.60
2022-10-07T07:59:02.653Z,16.83
2022-10-07T08:01:36.097Z,16.63
2022-10-07T08:04:10.481Z,16.08
2022-10-07T08:06:44.192Z,17.42
2022-10-07T08:09:16.973Z,14.20
2022-10-07T08:11:50.369Z,14.25
2022-10-07T08:14:23.637Z,12.75
2022-10-07T08:16:57.823Z,13.05
2022-10-07T08:19:30.609Z,12.02
2022-10-07T08:22:04.190Z,11.80
2022-10-07T08:24:37.765Z,10.20
2022-10-07T08:27:10.716Z,9.82
2022-10-07T08:29:47.701Z,9.18
2022-10-07T08:32:20.831Z,10.88
2022-10-07T08:34:53.602Z,10.25
2022-10-07T08:37:27.023Z,9.02
2022-10-07T08:39:59.842Z,7.78
2022-10-07T08:42:40.125Z,7.47
2022-10-07T08:45:29.561Z,7.40
2022-10-07T08:48:07.782Z,7.63
2022-10-07T08:51:13.662Z,9.15
2022-10-07T08:53:51.237Z,7.68
2022-10-07T08:56:25.223Z,7.75
2022-10-07T08:59:07.065Z,7.88
2022-10-07T09:02:00.076Z,7.15
2022-10-07T09:04:38.716Z,6.38
2022-10-07T09:07:20.090Z,5.00
2022-10-07T09:09:55.422Z,4.68
2022-10-07T09:12:48.937Z,4.63
2022-10-07T09:15:45.239Z,3.55
2022-10-07T09:18:32.398Z,3.55
2022-10-07T09:21:27.673Z,2.90
2022-10-07T09:24:29.079Z,3.35
2022-10-07T09:27:12.143Z,2.72
2022-10-07T09:29:45.168Z,3.97
2022-10-07T09:32:19.146Z,2.72
2022-10-07T09:34:52.476Z,2.92
2022-10-07T09:37:27.750Z,2.90
2022-10-07T09:40:23.368Z,2.95
2022-10-07T09:42:56.664Z,2.33
2022-10-07T09:45:33.804Z,2.55
2022-10-07T09:48:19.440Z,2.78
2022-10-07T09:50:52.272Z,2.67
2022-10-07T09:53:29.257Z,2.30
2022-10-07T09:56:01.976Z,2.05
2022-10-07T09:58:34.977Z,1.98
2022-10-07T10:01:12.048Z,2.72
2022-10-07T10:03:45.406Z,1.80
2022-10-07T10:06:22.449Z,1.38
2022-10-07T10:08:57.506Z,1.65
2022-10-07T10:11:30.605Z,1.58
2022-10-07T10:14:27.645Z,1.75
2022-10-07T10:17:00.464Z,1.95
2022-10-07T10:19:36.524Z,1.70
2022-10-07T10:22:40.957Z,1.85
2022-10-07T10:25:33.357Z,1.58
2022-10-07T10:28:14.831Z,1.20
2022-10-07T10:31:04.059Z,1.30
2022-10-07T10:33:47.165Z,1.75
2022-10-07T10:36:23.710Z,1.80
2022-10-07T10:39:06.558Z,1.77
2022-10-07T10:42:01.069Z,1.75
2022-10-07T10:44:45.462Z,1.30
2022-10-07T10:47:47.579Z,1.30
2022-10-07T10:50:24.784Z,2.17
2022-10-07T10:53:25.508Z,1.27
2022-10-07T10:56:00.964Z,1.30
2022-10-07T10:58:45.992Z,1.52
2022-10-07T11:01:40.936Z,1.38
2022-10-07T11:04:39.944Z,1.40
2022-10-07T11:07:36.764Z,1.52
2022-10-07T11:10:46.890Z,1.40
2022-10-07T11:13:33.093Z,1.30
2022-10-07T11:16:17.789Z,1.30
2022-10-07T11:18:54.037Z,1.77
2022-10-07T11:21:46.551Z,1.40
2022-10-07T11:24:54.306Z,1.60
2022-10-07T11:27:29.691Z,1.77
2022-10-07T11:30:11.353Z,1.33
2022-10-07T11:32:49.924Z,1.08
2022-10-07T11:35:23.414Z,1.25
2022-10-07T11:38:11.044Z,1.98
2022-10-07T11:40:55.218Z,1.77
2022-10-07T11:43:33.384Z,1.38
2022-10-07T11:46:16.859Z,1.27
2022-10-07T11:48:54.676Z,1.35
2022-10-07T11:51:35.537Z,1.50
2022-10-07T11:54:15.969Z,1.50
2022-10-07T11:56:51.600Z,1.70
2022-10-07T11:59:48.144Z,1.60
2022-10-07T12:02:29.866Z,1.20
2022-10-07T12:05:04.241Z,1.42
2022-10-07T12:07:45.100Z,1.48
2022-10-07T12:10:23.893Z,1.52
2022-10-07T12:13:21.125Z,1.90
2022-10-07T12:15:54.613Z,1.70
2022-10-07T12:18:28.614Z,1.48
2022-10-07T12:21:05.925Z,1.35
2022-10-07T12:23:40.072Z,2.05
2022-10-07T12:26:31.320Z,1.55
2022-10-07T12:29:04.468Z,1.38
2022-10-07T12:31:43.055Z,2.17
2022-10-07T12:34:50.296Z,1.60
2022-10-07T12:37:40.784Z,1.50
2022-10-07T12:40:24.821Z,1.40
2022-10-07T12:43:24.482Z,1.67
2022-10-07T12:45:58.727Z,1.60
2022-10-07T12:48:38.861Z,1.48
2022-10-07T12:51:22.364Z,1.90
2022-10-07T12:53:57.652Z,2.10
2022-10-07T12:56:30.893Z,2.47
2022-10-07T12:59:40.786Z,1.73
2022-10-07T13:02:57.498Z,1.83
2022-10-07T13:05:45.388Z,1.90
2022-10-07T13:08:38.294Z,1.40
2022-10-07T13:11:31.708Z,2.03
2022-10-07T13:15:03.934Z,1.35
2022-10-07T13:17:44.765Z,1.90
2022-10-07T13:20:36.030Z,2.42
2022-10-07T13:23:21.987Z,2.08
2022-10-07T13:26:00.190Z,1.70
2022-10-07T13:28:57.298Z,1.90
2022-10-07T13:31:31.992Z,1.95
2022-10-07T13:34:48.765Z,2.67
2022-10-07T13:37:30.305Z,2.35
2022-10-07T13:40:35.333Z,2.05
2022-10-07T13:43:09.341Z,1.95
2022-10-07T13:46:02.895Z,2.00
2022-10-07T13:48:52.854Z,2.08
2022-10-07T13:51:43.310Z,2.13
2022-10-07T13:54:21.877Z,2.10
2022-10-07T13:56:55.231Z,2.03
2022-10-07T13:59:37.453Z,1.83
2022-10-07T14:02:27.608Z,1.88
2022-10-07T14:05:05.135Z,2.00
2022-10-07T14:07:42.287Z,1.70
2022-10-07T14:10:15.164Z,2.10
2022-10-07T14:12:50.741Z,1.75
2022-10-07T14:15:27.226Z,1.55
2022-10-07T14:18:07.209Z,1.50
2022-10-07T14:20:44.918Z,1.92
2022-10-07T14:23:33.983Z,1.80
2022-10-07T14:26:11.284Z,1.77
2022-10-07T14:28:44.123Z,1.90
2022-10-07T14:31:38.872Z,1.75
2022-10-07T14:34:40.258Z,1.55
2022-10-07T14:37:29.598Z,2.17
2022-10-07T14:40:15.825Z,1.52
2022-10-07T14:42:50.241Z,1.83
2022-10-07T14:45:23.837Z,1.42
2022-10-07T14:47:56.691Z,1.67
2022-10-07T14:50:29.568Z,1.40
2022-10-07T14:53:02.984Z,1.25
2022-10-07T14:55:35.533Z,1.45
2022-10-07T14:58:10.764Z,1.60
2022-10-07T15:00:43.339Z,1.30
2022-10-07T15:03:16.307Z,1.65
2022-10-07T15:05:49.056Z,1.20
2022-10-07T15:08:22.390Z,1.30
2022-10-07T15:10:54.940Z,1.55
2022-10-07T15:13:28.321Z,1.63
2022-10-07T15:16:00.908Z,1.17
2022-10-07T15:18:33.578Z,2.08
2022-10-07T15:21:06.482Z,1.08
2022-10-07T15:23:39.377Z,1.15
2022-10-07T15:26:13.051Z,1.30
2022-10-07T15:28:55.031Z,1.27
2022-10-07T15:31:29.337Z,1.25
2022-10-07T15:34:02.479Z,1.63
2022-10-07T15:36:35.279Z,1.58
2022-10-07T15:39:09.469Z,1.77
2022-10-07T15:41:43.252Z,2.00
2022-10-07T15:44:18.561Z,1.80
2022-10-07T15:46:58.172Z,2.67
2022-10-07T15:49:32.282Z,1.95
2022-10-07T15:52:04.824Z,2.75
2022-10-07T15:54:38.166Z,2.92
2022-10-07T15:57:10.668Z,2.60
2022-10-07T15:59:43.667Z,3.00
2022-10-07T16:02:19.179Z,3.10
2022-10-07T16:04:52.278Z,3.70
2022-10-07T16:07:24.808Z,3.38
2022-10-07T16:09:57.545Z,3.72
2022-10-07T16:12:30.336Z,3.20
2022-10-07T16:15:03.811Z,3.15
2022-10-07T16:17:36.316Z,3.30
2022-10-07T16:20:11.507Z,4.05
2022-10-07T16:22:44.501Z,4.63
2022-10-07T16:25:17.469Z,3.13
2022-10-07T16:28:08.495Z,3.35
2022-10-07T16:30:50.247Z,3.45
2022-10-07T16:33:25.211Z,3.08
2022-10-07T16:35:58.428Z,3.95
2022-10-07T16:38:31.870Z,3.83
2022-10-07T16:41:04.636Z,4.03
2022-10-07T16:43:37.161Z,3.95
2022-10-07T16:46:15.846Z,3.65
2022-10-07T16:48:49.845Z,3.13
2022-10-07T16:51:25.771Z,3.42
2022-10-07T16:54:03.582Z,3.95
2022-10-07T16:56:36.495Z,3.58
2022-10-07T16:59:13.051Z,4.00
2022-10-07T17:01:45.886Z,3.38
2022-10-07T17:04:18.806Z,3.58
2022-10-07T17:06:51.680Z,4.00
2022-10-07T17:09:25.371Z,3.78
2022-10-07T17:11:59.584Z,3.75
2022-10-07T17:14:33.697Z,3.78
2022-10-07T17:17:07.915Z,3.97
2022-10-07T17:19:40.392Z,3.88
2022-10-07T17:22:13.517Z,4.10
2022-10-07T17:24:46.560Z,4.40
2022-10-07T17:27:19.373Z,4.15
2022-10-07T17:29:52.943Z,4.47
2022-10-07T17:32:27.199Z,4.25
2022-10-07T17:34:59.776Z,4.97
2022-10-07T17:37:33.892Z,5.20
2022-10-07T17:40:06.838Z,5.75
2022-10-07T17:42:39.652Z,5.55
2022-10-07T17:45:12.295Z,5.88
2022-10-07T17:47:45.149Z,6.47
2022-10-07T17:50:17.912Z,7.40
2022-10-07T17:52:51.383Z,7.20
2022-10-07T17:55:24.279Z,7.43
2022-10-07T17:57:56.968Z,7.93
2022-10-07T18:00:30.429Z,9.27
2022-10-07T18:03:03.459Z,9.27
2022-10-07T18:05:35.991Z,9.95
2022-10-07T18:08:08.752Z,9.55
2022-10-07T18:10:41.461Z,10.00
2022-10-07T18:13:32.652Z,11.27
2022-10-07T18:16:05.829Z,13.25
2022-10-07T18:18:38.673Z,11.60
2022-10-07T18:21:11.779Z,14.65
2022-10-07T18:23:44.488Z,14.90
2022-10-07T18:26:17.340Z,14.73
2022-10-07T18:28:50.108Z,15.75
2022-10-07T18:31:22.613Z,14.98
2022-10-07T18:33:56.738Z,16.27
2022-10-07T18:36:29.360Z,16.50
2022-10-07T18:39:02.116Z,15.80
2022-10-07T18:41:34.784Z,16.63
2022-10-07T18:44:09.179Z,16.02
2022-10-07T18:46:41.764Z,14.57
2022-10-07T18:49:14.488Z,14.63
2022-10-07T18:51:47.396Z,16.05
2022-10-07T18:54:20.776Z,14.75
2022-10-07T18:56:53.283Z,15.50
2022-10-07T18:59:26.001Z,15.38
2022-10-07T19:01:58.660Z,14.50
2022-10-07T19:04:31.461Z,14.48
2022-10-07T19:07:04.043Z,14.10
2022-10-07T19:09:36.828Z,14.90
2022-10-07T19:12:29.324Z,14.57
2022-10-07T19:15:02.451Z,14.30
2022-10-07T19:17:34.947Z,14.32
2022-10-07T19:20:08.083Z,14.65
2022-10-07T19:22:40.591Z,13.98
2022-10-07T19:25:32.069Z,16.20
2022-10-07T19:28:04.713Z,14.75
2022-10-07T19:30:37.644Z,15.13
2022-10-07T19:33:10.987Z,15.25
2022-10-07T19:35:45.063Z,16.92
2022-10-07T19:38:17.568Z,15.95
2022-10-07T19:40:50.417Z,14.73
2022-10-07T19:43:23.039Z,14.38
2022-10-07T19:46:01.408Z,14.90
2022-10-07T19:48:34.794Z,15.13
2022-10-07T19:51:12.232Z,13.82
2022-10-07T19:53:47.238Z,13.18
2022-10-07T19:56:23.121Z,13.93
2022-10-07T19:59:05.560Z,14.35
2022-10-07T20:01:45.205Z,13.55
2022-10-07T20:04:21.096Z,13.10
2022-10-07T20:06:59.172Z,13.15
2022-10-07T20:09:32.891Z,11.75
2022-10-07T20:12:05.731Z,12.52
2022-10-07T20:14:38.222Z,12.35
2022-10-07T20:17:11.399Z,11.73
2022-10-07T20:19:43.947Z,11.57
2022-10-07T20:22:16.966Z,11.38
2022-10-07T20:24:49.469Z,12.57
2022-10-07T20:27:22.372Z,12.02
2022-10-07T20:29:57.882Z,13.02
2022-10-07T20:32:34.035Z,12.52
2022-10-07T20:35:10.691Z,11.68
2022-10-07T20:37:43.411Z,11.70
2022-10-07T20:40:34.809Z,11.23
2022-10-07T20:43:11.357Z,11.77
2022-10-07T20:45:59.247Z,12.35
2022-10-07T20:48:33.802Z,13.15
2022-10-07T20:51:10.377Z,11.20
2022-10-07T20:53:48.065Z,11.73
2022-10-07T20:56:20.550Z,12.27
2022-10-07T20:58:53.361Z,11.77
2022-10-07T21:01:26.091Z,11.82
2022-10-07T21:03:59.042Z,12.60
2022-10-07T21:06:31.542Z,10.90
2022-10-07T21:09:04.738Z,11.57
2022-10-07T21:11:37.926Z,13.32
2022-10-07T21:14:11.579Z,10.70
2022-10-07T21:16:45.366Z,11.20
2022-10-07T21:19:18.137Z,12.98
2022-10-07T21:21:51.657Z,12.45
2022-10-07T21:24:24.641Z,12.27
2022-10-07T21:26:57.222Z,12.52
2022-10-07T21:29:31.374Z,14.10
2022-10-07T21:32:04.153Z,12.68
2022-10-07T21:34:37.803Z,12.48
2022-10-07T21:37:10.343Z,12.20
2022-10-07T21:39:43.039Z,12.98
2022-10-07T21:42:16.572Z,13.02
2022-10-07T21:44:49.303Z,12.68
2022-10-07T21:47:21.816Z,13.45
2022-10-07T21:49:56.998Z,11.65
2022-10-07T21:52:29.640Z,11.57
2022-10-07T21:55:02.454Z,12.55
2022-10-07T21:57:34.951Z,11.68
2022-10-07T22:00:09.823Z,13.45
2022-10-07T22:02:43.596Z,12.60
2022-10-07T22:05:16.762Z,11.77
2022-10-07T22:08:10.256Z,14.07
2022-10-07T22:10:43.096Z,11.77
2022-10-07T22:13:15.709Z,13.70
2022-10-07T22:15:58.529Z,14.38
2022-10-07T22:18:35.273Z,13.00
2022-10-07T22:21:38.342Z,13.63
2022-10-07T22:27:07.402Z,14.13
2022-10-07T22:29:39.981Z,13.88
2022-10-07T22:32:12.771Z,14.68
2022-10-07T22:35:04.089Z,13.95
2022-10-07T22:37:36.871Z,14.23
2022-10-07T22:40:09.826Z,14.00
2022-10-07T22:42:46.502Z,14.68
2022-10-07T22:45:19.705Z,12.95
2022-10-07T22:47:52.769Z,13.68
2022-10-07T22:50:25.381Z,12.80
2022-10-07T22:52:58.209Z,14.23
2022-10-07T22:55:30.761Z,13.43
2022-10-07T22:58:03.485Z,12.95
2022-10-07T23:00:35.990Z,13.07
2022-10-07T23:03:12.302Z,13.52
2022-10-07T23:05:44.964Z,14.38
2022-10-07T23:08:17.765Z,13.38
2022-10-07T23:10:57.284Z,14.25
2022-10-07T23:13:33.172Z,14.55
2022-10-07T23:16:11.339Z,13.70
2022-10-07T23:18:45.721Z,14.02
2022-10-07T23:21:21.344Z,14.82
2022-10-07T23:24:05.934Z,14.57
2022-10-07T23:26:40.424Z,15.00
2022-10-07T23:29:13.697Z,13.63
2022-10-07T23:31:47.284Z,13.60
2022-10-07T23:34:20.035Z,15.30
2022-10-07T23:36:55.358Z,15.23
2022-10-07T23:39:28.400Z,14.40
2022-10-07T23:42:00.951Z,15.60
2022-10-07T23:44:34.327Z,15.07
2022-10-07T23:47:06.936Z,14.98
2022-10-07T23:49:39.667Z,15.50
2022-10-07T23:52:13.315Z,15.63
2022-10-07T23:54:46.055Z,15.05
2022-10-07T23:57:18.607Z,15.20
2022-10-07T23:59:51.567Z,14.07
